Aviation Digital Data Service (ADDS)

Output produced by METARs form (1908 UTC 24 April 2014)
found at http://aviationweather.gov/adds/metars/
 
KCKB 241720Z 2418/2518 02008KT P6SM SCT110 
     FM242000 03004KT P6SM BKN110 
     FM250000 05004KT P6SM SCT140 
     FM251100 15005KT P6SM BKN100 
     FM251400 17009KT 6SM BR BKN060 
     FM251500 18011G16KT 5SM SHRA OVC050